Southend, Canada
Current Conditions -  °F | °C
As of 2:00 AM on Wednesday 22 Oct 2014 (Local Time) from CYYL Reporting Station
Overcast Overcast  
Wind Chill: 35°   Ceiling: 13000
Heat Index: 39°   Visibility: 9mi
Dew Point: 39°   Wind: 6mph
Humidity: 100%   Direction: 320°NW
Pressure: 29.57"   Gusts: NA
Location:  56.33°N, 103.24°W
Report Text: CYYL 220800Z AUTO 32005KT 230V330 9SM BKN130 OVC150 04/04 A2957 RMK SLP026
Loading
Personal Weather Stations






























Interactive Weather Map
Tropical Storm Tracking
New forecast layout! Learn more

10-Day Weather Forecast

Advertisements
Track Severe Weather on mobile